createdAt,value
2018-12-20T00:00:14.676Z,100514.55
2018-12-20T00:05:27.239Z,100511.25
2018-12-20T00:10:38.245Z,100509.04
2018-12-20T00:15:50.210Z,100514.21
2018-12-20T00:21:01.346Z,100517.90
2018-12-20T00:26:13.579Z,100514.07
2018-12-20T00:31:24.540Z,100513.34
2018-12-20T00:36:36.482Z,100514.07
2018-12-20T00:41:49.737Z,100509.37
2018-12-20T00:47:01.724Z,100504.28
2018-12-20T00:52:09.289Z,100504.14
2018-12-20T00:57:21.317Z,100501.20
2018-12-20T01:02:33.151Z,100509.36
2018-12-20T01:07:45.480Z,100507.05
2018-12-20T01:12:57.653Z,100501.88
2018-12-20T01:18:09.030Z,100503.61
2018-12-20T01:23:21.010Z,100510.95
2018-12-20T01:28:32.405Z,100501.67
2018-12-20T01:33:44.356Z,100496.94
2018-12-20T01:38:55.455Z,100496.69
2018-12-20T01:44:07.579Z,100501.11
2018-12-20T01:49:18.584Z,100503.70
2018-12-20T01:54:30.717Z,100502.45
2018-12-20T01:59:41.704Z,100506.01
2018-12-20T02:04:53.945Z,100510.27
2018-12-20T02:10:05.473Z,100501.06
2018-12-20T02:15:17.498Z,100506.68
2018-12-20T02:20:28.493Z,100502.70
2018-12-20T02:25:40.522Z,100509.12
2018-12-20T02:30:51.702Z,100495.30
2018-12-20T02:36:03.860Z,100495.69
2018-12-20T02:41:14.921Z,100491.75
2018-12-20T02:46:26.830Z,100484.20
2018-12-20T02:51:38.238Z,100478.75
2018-12-20T02:56:50.161Z,100476.64
2018-12-20T03:02:01.142Z,100470.87
2018-12-20T03:07:13.311Z,100466.77
2018-12-20T03:12:24.312Z,100471.67
2018-12-20T03:14:53.725Z,100459.96
2018-12-20T03:20:06.924Z,100458.08
2018-12-20T03:25:16.057Z,100457.91
2018-12-20T03:30:27.293Z,100456.73
2018-12-20T03:35:39.258Z,100461.20
2018-12-20T03:40:50.343Z,100458.08
2018-12-20T03:46:04.189Z,100461.91
2018-12-20T03:51:15.695Z,100453.31
2018-12-20T03:56:27.822Z,100453.69
2018-12-20T04:01:38.889Z,100462.72
2018-12-20T04:06:50.954Z,100460.39
2018-12-20T04:12:02.202Z,100462.66
2018-12-20T04:17:14.321Z,100465.97
2018-12-20T04:22:25.474Z,100459.11
2018-12-20T04:27:39.997Z,100461.20
2018-12-20T04:32:51.291Z,100459.91
2018-12-20T04:38:02.334Z,100478.48
2018-12-20T04:43:14.358Z,100481.67
2018-12-20T04:48:25.795Z,100475.66
2018-12-20T04:53:37.814Z,100482.27
2018-12-20T04:58:49.166Z,100478.59
2018-12-20T05:04:01.457Z,100472.08
2018-12-20T05:09:12.567Z,100472.78
2018-12-20T05:14:26.405Z,100471.59
2018-12-20T05:19:37.675Z,100477.64
2018-12-20T05:24:49.926Z,100478.92
2018-12-20T05:30:00.885Z,100485.93
2018-12-20T05:35:12.962Z,100492.02
2018-12-20T05:40:24.164Z,100493.80
2018-12-20T05:45:38.337Z,100493.31
2018-12-20T05:50:49.381Z,100490.48
2018-12-20T05:56:01.515Z,100501.61
2018-12-20T06:01:12.373Z,100503.47
2018-12-20T06:03:41.713Z,100500.03
2018-12-20T06:08:52.688Z,100511.23
2018-12-20T06:14:04.661Z,100523.75
2018-12-20T06:19:15.686Z,100529.45
2018-12-20T06:24:29.714Z,100528.45
2018-12-20T06:29:40.670Z,100522.45
2018-12-20T06:34:52.647Z,100530.74
2018-12-20T06:40:03.818Z,100535.10
2018-12-20T06:45:16.464Z,100529.41
2018-12-20T06:50:23.926Z,100529.84
2018-12-20T06:55:35.881Z,100530.27
2018-12-20T07:00:46.786Z,100531.18
2018-12-20T07:05:58.710Z,100532.73
2018-12-20T07:11:10.099Z,100532.73
2018-12-20T07:16:29.271Z,100529.22
2018-12-20T07:21:36.718Z,100529.85
2018-12-20T07:26:48.946Z,100542.28
2018-12-20T07:31:58.529Z,100547.73
2018-12-20T07:37:10.722Z,100550.18
2018-12-20T07:42:21.999Z,100542.84
2018-12-20T07:44:51.735Z,100554.97
2018-12-20T07:50:03.564Z,100549.36
2018-12-20T07:55:16.718Z,100547.30
2018-12-20T08:00:33.551Z,100561.16
2018-12-20T08:05:46.319Z,100557.66
2018-12-20T08:10:59.230Z,100564.09
2018-12-20T08:16:11.667Z,100562.70
2018-12-20T08:21:23.030Z,100563.84
2018-12-20T08:26:35.286Z,100567.78
2018-12-20T08:31:46.494Z,100579.34
2018-12-20T08:36:58.596Z,100572.72
2018-12-20T08:42:11.479Z,100584.43
2018-12-20T08:47:23.522Z,100599.11
2018-12-20T08:52:34.406Z,100593.41
2018-12-20T08:57:46.689Z,100609.72
2018-12-20T09:00:16.014Z,100596.81
2018-12-20T09:02:45.674Z,100599.87
2018-12-20T09:07:57.922Z,100610.63
2018-12-20T09:13:10.038Z,100605.30
2018-12-20T09:18:20.986Z,100621.47
2018-12-20T09:23:33.092Z,100617.05
2018-12-20T09:28:44.073Z,100612.73
2018-12-20T09:33:56.169Z,100610.80
2018-12-20T09:39:09.670Z,100627.84
2018-12-20T09:44:21.794Z,100617.39
2018-12-20T09:49:42.611Z,100621.32
2018-12-20T09:54:54.853Z,100617.77
2018-12-20T10:00:07.541Z,100615.38
2018-12-20T10:05:19.803Z,100614.45
2018-12-20T10:10:32.945Z,100614.41
2018-12-20T10:15:44.978Z,100607.45
2018-12-20T10:20:57.013Z,100609.08
2018-12-20T10:26:09.192Z,100604.70
2018-12-20T10:31:20.133Z,100607.87
2018-12-20T10:36:32.130Z,100606.41
2018-12-20T10:41:43.622Z,100596.14
2018-12-20T10:46:59.882Z,100596.75
2018-12-20T10:52:10.710Z,100598.11
2018-12-20T10:57:24.594Z,100600.13
2018-12-20T11:02:42.250Z,100593.09
2018-12-20T11:09:13.726Z,100584.72
2018-12-20T11:14:44.670Z,100581.00
2018-12-20T11:19:55.681Z,100574.77
2018-12-20T11:22:25.187Z,100563.41
2018-12-20T11:27:39.094Z,100558.43
2018-12-20T11:32:52.601Z,100559.00
2018-12-20T11:38:03.550Z,100559.55
2018-12-20T11:43:15.350Z,100558.62
2018-12-20T11:48:26.378Z,100549.78
2018-12-20T11:53:38.302Z,100543.73
2018-12-20T11:58:49.292Z,100541.45
2018-12-20T12:04:01.307Z,100551.03
2018-12-20T12:09:12.142Z,100546.72
2018-12-20T12:14:24.368Z,100536.44
2018-12-20T12:19:35.625Z,100538.44
2018-12-20T12:24:47.974Z,100525.45
2018-12-20T12:29:59.044Z,100527.67
2018-12-20T12:35:07.866Z,100528.34
2018-12-20T12:40:18.957Z,100539.16
2018-12-20T12:45:31.197Z,100550.48
2018-12-20T12:50:43.110Z,100549.63
2018-12-20T12:53:13.161Z,100563.11
2018-12-20T12:58:25.195Z,100556.35
2018-12-20T13:03:37.682Z,100548.31
2018-12-20T13:08:48.601Z,100546.97
2018-12-20T13:14:00.761Z,100538.25
2018-12-20T13:19:11.786Z,100527.92
2018-12-20T13:24:24.599Z,100531.87
2018-12-20T13:29:37.271Z,100536.39
2018-12-20T13:34:49.531Z,100540.45
2018-12-20T13:40:01.634Z,100542.23
2018-12-20T13:45:13.941Z,100540.89
2018-12-20T13:50:25.018Z,100542.25
2018-12-20T13:55:37.787Z,100544.47
2018-12-20T14:00:48.872Z,100542.36
2018-12-20T14:06:01.014Z,100543.13
2018-12-20T14:11:12.005Z,100549.59
2018-12-20T14:13:41.444Z,100553.00
2018-12-20T14:18:55.807Z,100557.06
2018-12-20T14:24:07.741Z,100567.38
2018-12-20T14:29:20.440Z,100563.00
2018-12-20T14:34:32.473Z,100570.16
2018-12-20T14:39:43.595Z,100560.05
2018-12-20T14:44:55.537Z,100564.03
2018-12-20T14:50:09.558Z,100570.42
2018-12-20T14:55:21.478Z,100564.95
2018-12-20T15:00:32.508Z,100563.28
2018-12-20T15:03:01.999Z,100565.95
2018-12-20T15:08:12.972Z,100571.14
2018-12-20T15:13:24.929Z,100570.23
2018-12-20T15:18:36.106Z,100560.73
2018-12-20T15:23:48.323Z,100577.43
2018-12-20T15:28:59.425Z,100578.58
2018-12-20T15:31:28.839Z,100583.70
2018-12-20T15:36:40.955Z,100587.55
2018-12-20T15:41:51.908Z,100586.20
2018-12-20T15:47:04.399Z,100591.86
2018-12-20T15:52:16.708Z,100595.27
2018-12-20T15:57:28.762Z,100593.77
2018-12-20T16:02:39.907Z,100591.08
2018-12-20T16:07:54.209Z,100607.01
2018-12-20T16:13:06.533Z,100606.47
2018-12-20T16:18:18.409Z,100618.48
2018-12-20T16:23:36.577Z,100629.99
2018-12-20T16:28:47.587Z,100626.48
2018-12-20T16:33:59.591Z,100624.27
2018-12-20T16:39:26.318Z,100639.83
2018-12-20T16:41:55.739Z,100642.42
2018-12-20T16:44:25.205Z,100641.13
2018-12-20T16:49:36.266Z,100651.50
2018-12-20T16:54:48.698Z,100645.66
2018-12-20T17:00:01.951Z,100648.68
2018-12-20T17:05:14.380Z,100654.20
2018-12-20T17:10:25.477Z,100650.84
2018-12-20T17:15:37.569Z,100650.08
2018-12-20T17:20:49.610Z,100645.36
2018-12-20T17:23:19.266Z,100650.99
2018-12-20T17:28:26.802Z,100646.72
2018-12-20T17:33:39.035Z,100644.59
2018-12-20T17:38:49.966Z,100641.15
2018-12-20T17:41:19.318Z,100641.15
2018-12-20T17:43:48.745Z,100641.15
2018-12-20T17:48:59.761Z,100642.30
2018-12-20T17:54:14.055Z,100647.58
2018-12-20T17:59:25.124Z,100650.35
2018-12-20T18:04:37.219Z,100647.86
2018-12-20T18:09:48.280Z,100640.27
2018-12-20T18:15:00.273Z,100645.63
2018-12-20T18:20:11.881Z,100636.91
2018-12-20T18:25:24.203Z,100640.31
2018-12-20T18:30:36.311Z,100642.86
2018-12-20T18:33:05.676Z,100643.25
2018-12-20T18:38:19.690Z,100641.34
2018-12-20T18:43:31.941Z,100649.11
2018-12-20T18:48:42.909Z,100639.84
2018-12-20T18:53:55.953Z,100645.06
2018-12-20T18:59:06.914Z,100643.30
2018-12-20T19:01:36.268Z,100651.84
2018-12-20T19:06:48.353Z,100658.75
2018-12-20T19:12:00.421Z,100665.61
2018-12-20T19:17:12.538Z,100663.87
2018-12-20T19:22:24.575Z,100661.64
2018-12-20T19:27:36.541Z,100659.95
2018-12-20T19:32:51.781Z,100659.47
2018-12-20T19:38:03.848Z,100669.02
2018-12-20T19:43:18.175Z,100675.20
2018-12-20T19:48:29.372Z,100665.61
2018-12-20T19:53:41.633Z,100671.70
2018-12-20T19:58:52.675Z,100668.67
2018-12-20T20:04:05.323Z,100657.70
2018-12-20T20:09:17.582Z,100651.17
2018-12-20T20:14:30.240Z,100634.33
2018-12-20T20:19:41.435Z,100638.69
2018-12-20T20:24:53.761Z,100638.98
2018-12-20T20:30:07.380Z,100637.94
2018-12-20T20:35:19.479Z,100631.84
2018-12-20T20:40:31.384Z,100627.80
2018-12-20T20:45:44.419Z,100636.48
2018-12-20T20:50:55.655Z,100634.19
2018-12-20T20:56:07.994Z,100633.33
2018-12-20T21:01:19.226Z,100643.41
2018-12-20T21:03:48.705Z,100652.67
2018-12-20T21:09:00.081Z,100649.98
2018-12-20T21:14:12.291Z,100649.34
2018-12-20T21:19:23.324Z,100648.65
2018-12-20T21:24:35.901Z,100650.81
2018-12-20T21:29:47.023Z,100647.92
2018-12-20T21:34:59.022Z,100641.45
2018-12-20T21:40:10.206Z,100644.08
2018-12-20T21:45:23.042Z,100645.72
2018-12-20T21:50:38.998Z,100643.52
2018-12-20T21:55:48.318Z,100637.77
2018-12-20T22:00:59.438Z,100644.20
2018-12-20T22:06:12.046Z,100643.72
2018-12-20T22:11:23.184Z,100638.41
2018-12-20T22:16:35.568Z,100640.00
2018-12-20T22:21:49.837Z,100640.72
2018-12-20T22:26:58.681Z,100638.03
2018-12-20T22:32:10.263Z,100645.56
2018-12-20T22:37:22.534Z,100643.31
2018-12-20T22:42:45.780Z,100638.98
2018-12-20T22:48:27.654Z,100635.38
2018-12-20T22:51:02.661Z,100632.63
2018-12-20T22:53:41.878Z,100623.12
2018-12-20T22:59:08.926Z,100617.34
2018-12-20T23:04:38.324Z,100611.14
2018-12-20T23:09:52.829Z,100612.45
2018-12-20T23:15:10.110Z,100605.09
2018-12-20T23:20:21.099Z,100593.75
2018-12-20T23:25:33.124Z,100588.41
2018-12-20T23:30:44.256Z,100578.12
2018-12-20T23:35:56.855Z,100569.05
2018-12-20T23:41:07.888Z,100573.33
2018-12-20T23:46:16.492Z,100576.78
2018-12-20T23:51:27.711Z,100586.66
2018-12-20T23:56:39.982Z,100566.23
